createdAt,value
2022-08-12T00:00:37.789Z,22.00
2022-08-12T00:03:24.075Z,21.90
2022-08-12T00:06:10.359Z,21.90
2022-08-12T00:08:57.682Z,21.80
2022-08-12T00:11:46.299Z,21.70
2022-08-12T00:14:52.748Z,21.70
2022-08-12T00:17:40.098Z,21.60
2022-08-12T00:20:29.744Z,21.50
2022-08-12T00:23:17.021Z,21.50
2022-08-12T00:26:20.978Z,21.40
2022-08-12T00:29:11.541Z,21.30
2022-08-12T00:31:57.871Z,21.30
2022-08-12T00:34:49.566Z,21.30
2022-08-12T00:37:38.545Z,21.40
2022-08-12T00:40:27.501Z,21.10
2022-08-12T00:42:57.848Z,21.10
2022-08-12T00:45:47.226Z,21.10
2022-08-12T00:48:16.473Z,21.10
2022-08-12T00:50:49.015Z,21.00
2022-08-12T00:53:19.576Z,20.90
2022-08-12T00:55:49.727Z,20.90
2022-08-12T00:58:24.201Z,21.10
2022-08-12T01:00:53.021Z,20.80
2022-08-12T01:03:22.592Z,21.00
2022-08-12T01:06:11.718Z,20.80
2022-08-12T01:08:59.521Z,20.90
2022-08-12T01:11:31.773Z,20.70
2022-08-12T01:14:23.816Z,20.70
2022-08-12T01:16:53.656Z,20.70
2022-08-12T01:19:24.137Z,20.60
2022-08-12T01:22:25.210Z,20.60
2022-08-12T01:25:08.915Z,20.50
2022-08-12T01:27:41.654Z,20.50
2022-08-12T01:30:13.167Z,20.40
2022-08-12T01:32:43.747Z,20.40
2022-08-12T01:35:16.108Z,20.30
2022-08-12T01:37:49.155Z,20.40
2022-08-12T01:40:36.250Z,20.50
2022-08-12T01:43:09.320Z,20.30
2022-08-12T01:45:57.066Z,20.40
2022-08-12T01:48:36.315Z,20.20
2022-08-12T01:52:15.916Z,20.20
2022-08-12T01:54:06.592Z,20.10
2022-08-12T01:56:48.721Z,20.10
2022-08-12T01:59:42.567Z,20.20
2022-08-12T02:02:16.840Z,20.20
2022-08-12T02:05:33.099Z,19.90
2022-08-12T02:08:36.210Z,19.90
2022-08-12T02:11:19.106Z,19.80
2022-08-12T02:14:11.627Z,19.80
2022-08-12T02:17:06.533Z,19.80
2022-08-12T02:20:02.031Z,19.80
2022-08-12T02:22:38.944Z,19.70
2022-08-12T02:25:11.878Z,19.70
2022-08-12T02:27:43.780Z,19.60
2022-08-12T02:30:19.345Z,19.70
2022-08-12T02:32:51.413Z,19.60
2022-08-12T02:35:22.993Z,19.50
2022-08-12T02:37:53.918Z,19.70
2022-08-12T02:40:24.199Z,19.50
2022-08-12T02:42:59.449Z,19.50
2022-08-12T02:45:38.371Z,19.50
2022-08-12T02:48:10.549Z,19.40
2022-08-12T02:50:48.389Z,19.40
2022-08-12T02:53:18.226Z,19.30
2022-08-12T02:55:46.912Z,19.60
2022-08-12T02:58:15.958Z,19.30
2022-08-12T03:00:49.879Z,19.30
2022-08-12T03:03:22.817Z,19.20
2022-08-12T03:05:59.757Z,19.30
2022-08-12T03:08:33.381Z,19.20
2022-08-12T03:11:12.020Z,19.10
2022-08-12T03:13:48.869Z,19.10
2022-08-12T03:16:20.717Z,19.10
2022-08-12T03:18:51.611Z,19.00
2022-08-12T03:21:52.998Z,19.00
2022-08-12T03:24:10.066Z,18.90
2022-08-12T03:26:38.994Z,18.90
2022-08-12T03:29:08.375Z,18.90
2022-08-12T03:31:38.109Z,18.80
2022-08-12T03:34:09.417Z,18.90
2022-08-12T03:36:40.615Z,18.80
2022-08-12T03:39:35.211Z,18.80
2022-08-12T03:42:17.236Z,18.70
2022-08-12T03:45:14.476Z,18.60
2022-08-12T03:48:06.860Z,18.60
2022-08-12T03:50:53.217Z,18.50
2022-08-12T03:53:45.633Z,18.50
2022-08-12T03:56:31.723Z,18.50
2022-08-12T03:59:19.385Z,18.40
2022-08-12T04:01:52.610Z,18.40
2022-08-12T04:04:24.008Z,18.30
2022-08-12T04:06:53.124Z,18.30
2022-08-12T04:09:23.248Z,18.20
2022-08-12T04:12:09.728Z,18.20
2022-08-12T04:14:38.803Z,18.10
2022-08-12T04:17:08.532Z,18.10
2022-08-12T04:19:38.893Z,18.10
2022-08-12T04:22:07.305Z,18.00
2022-08-12T04:24:38.141Z,18.00
2022-08-12T04:27:11.577Z,18.00
2022-08-12T04:30:31.590Z,18.00
2022-08-12T04:32:29.545Z,17.90
2022-08-12T04:34:59.206Z,17.90
2022-08-12T04:37:27.939Z,17.90
2022-08-12T04:40:17.262Z,17.80
2022-08-12T04:42:57.050Z,17.80
2022-08-12T04:45:25.399Z,17.80
2022-08-12T04:47:53.853Z,17.80
2022-08-12T04:50:34.855Z,17.80
2022-08-12T04:53:06.818Z,17.70
2022-08-12T04:55:38.418Z,17.70
2022-08-12T04:58:07.547Z,17.70
2022-08-12T05:00:37.903Z,17.70
2022-08-12T05:03:06.592Z,17.60
2022-08-12T05:05:38.966Z,17.60
2022-08-12T05:08:12.785Z,17.60
2022-08-12T05:10:41.540Z,17.60
2022-08-12T05:13:14.448Z,17.60
2022-08-12T05:16:05.219Z,17.60
2022-08-12T05:18:33.824Z,17.60
2022-08-12T05:21:06.015Z,17.60
2022-08-12T05:23:34.456Z,17.60
2022-08-12T05:26:03.138Z,17.60
2022-08-12T05:28:31.566Z,17.60
2022-08-12T05:31:01.847Z,17.60
2022-08-12T05:33:33.218Z,17.60
2022-08-12T05:36:01.624Z,17.60
2022-08-12T05:38:48.769Z,17.60
2022-08-12T05:41:20.534Z,17.60
2022-08-12T05:43:51.813Z,17.60
2022-08-12T05:46:20.781Z,17.60
2022-08-12T05:48:49.458Z,17.60
2022-08-12T05:51:18.914Z,17.70
2022-08-12T05:53:48.655Z,17.60
2022-08-12T05:56:23.145Z,17.70
2022-08-12T05:58:54.595Z,17.60
2022-08-12T06:02:09.138Z,17.60
2022-08-12T06:04:15.316Z,17.70
2022-08-12T06:06:43.635Z,17.70
2022-08-12T06:09:13.276Z,17.70
2022-08-12T06:12:04.541Z,17.70
2022-08-12T06:14:32.418Z,17.80
2022-08-12T06:17:01.238Z,17.80
2022-08-12T06:20:27.147Z,17.80
2022-08-12T06:22:20.065Z,17.80
2022-08-12T06:24:49.892Z,17.90
2022-08-12T06:27:18.865Z,18.00
2022-08-12T06:30:07.099Z,18.00
2022-08-12T06:32:40.191Z,18.00
2022-08-12T06:35:25.025Z,18.10
2022-08-12T06:38:05.112Z,18.30
2022-08-12T06:40:52.330Z,18.20
2022-08-12T06:43:21.340Z,18.20
2022-08-12T06:45:49.753Z,18.30
2022-08-12T06:48:18.370Z,18.30
2022-08-12T06:50:47.301Z,18.40
2022-08-12T06:53:16.411Z,18.40
2022-08-12T06:55:57.981Z,18.50
2022-08-12T06:58:27.978Z,18.60
2022-08-12T07:00:57.958Z,18.60
2022-08-12T07:03:28.655Z,18.70
2022-08-12T07:05:59.554Z,18.80
2022-08-12T07:08:29.087Z,18.80
2022-08-12T07:11:01.289Z,18.90
2022-08-12T07:13:35.878Z,19.00
2022-08-12T07:16:24.513Z,19.10
2022-08-12T07:18:53.913Z,19.20
2022-08-12T07:21:22.238Z,19.40
2022-08-12T07:23:50.586Z,19.30
2022-08-12T07:26:21.472Z,19.40
2022-08-12T07:28:53.803Z,19.50
2022-08-12T07:31:22.181Z,19.70
2022-08-12T07:33:51.724Z,19.70
2022-08-12T07:36:22.640Z,19.80
2022-08-12T07:38:51.747Z,19.90
2022-08-12T07:41:25.353Z,20.00
2022-08-12T07:44:14.781Z,20.10
2022-08-12T07:46:44.926Z,20.30
2022-08-12T07:49:16.537Z,20.40
2022-08-12T07:51:46.128Z,20.60
2022-08-12T07:54:14.562Z,20.70
2022-08-12T07:56:44.896Z,20.80
2022-08-12T07:59:13.451Z,21.00
2022-08-12T08:01:43.138Z,21.10
2022-08-12T08:04:29.240Z,21.40
2022-08-12T08:06:58.329Z,21.40
2022-08-12T08:09:26.759Z,21.70
2022-08-12T08:12:18.977Z,21.70
2022-08-12T08:14:49.895Z,22.00
2022-08-12T08:17:18.675Z,22.00
2022-08-12T08:20:03.034Z,22.20
2022-08-12T08:22:41.965Z,22.40
2022-08-12T08:25:34.338Z,22.50
2022-08-12T08:28:04.515Z,22.70
2022-08-12T08:30:34.882Z,22.80
2022-08-12T08:33:05.190Z,22.90
2022-08-12T08:35:54.395Z,23.10
2022-08-12T08:38:32.312Z,23.30
2022-08-12T08:42:13.895Z,23.40
2022-08-12T08:44:12.366Z,23.60
2022-08-12T08:46:42.475Z,23.70
2022-08-12T08:49:11.734Z,23.90
2022-08-12T08:51:40.486Z,23.90
2022-08-12T08:54:11.576Z,24.00
2022-08-12T08:56:46.526Z,24.10
2022-08-12T08:59:17.320Z,24.20
2022-08-12T09:01:46.406Z,24.30
2022-08-12T09:05:07.545Z,24.40
2022-08-12T09:07:17.824Z,24.50
2022-08-12T09:10:02.096Z,24.60
2022-08-12T09:12:51.637Z,24.70
2022-08-12T09:15:34.978Z,24.90
2022-08-12T09:18:09.073Z,25.00
2022-08-12T09:20:39.169Z,25.20
2022-08-12T09:23:59.372Z,25.20
2022-08-12T09:28:53.029Z,25.50
2022-08-12T09:32:02.763Z,25.60
2022-08-12T09:34:29.455Z,25.70
2022-08-12T09:37:19.463Z,25.80
2022-08-12T09:40:05.491Z,25.90
2022-08-12T09:43:17.929Z,26.10
2022-08-12T09:46:11.067Z,26.20
2022-08-12T09:48:44.670Z,26.30
2022-08-12T09:51:24.371Z,26.40
2022-08-12T09:54:30.970Z,26.50
2022-08-12T09:57:01.912Z,26.60
2022-08-12T10:00:12.677Z,26.70
2022-08-12T10:02:45.732Z,26.80
2022-08-12T10:05:13.827Z,26.90
2022-08-12T10:07:46.124Z,27.00
2022-08-12T10:10:22.825Z,27.10
2022-08-12T10:13:13.223Z,27.20
2022-08-12T10:16:01.923Z,27.30
2022-08-12T10:18:35.694Z,27.40
2022-08-12T10:21:09.897Z,27.50
2022-08-12T10:23:41.000Z,27.60
2022-08-12T10:26:39.128Z,27.60
2022-08-12T10:30:03.907Z,27.70
2022-08-12T10:32:45.500Z,27.70
2022-08-12T10:35:10.793Z,27.80
2022-08-12T10:38:38.882Z,27.90
2022-08-12T10:40:33.580Z,28.00
2022-08-12T10:43:19.727Z,28.20
2022-08-12T10:45:49.383Z,28.30
2022-08-12T10:48:26.808Z,28.40
2022-08-12T10:52:04.708Z,28.50
2022-08-12T10:54:00.620Z,28.60
2022-08-12T10:56:34.225Z,28.70
2022-08-12T10:59:10.861Z,28.80
2022-08-12T11:04:20.869Z,29.00
2022-08-12T11:04:43.648Z,29.10
2022-08-12T11:08:35.906Z,29.20
2022-08-12T11:10:08.669Z,29.30
2022-08-12T11:12:59.049Z,29.30
2022-08-12T11:15:32.858Z,29.30
2022-08-12T11:18:18.429Z,29.40
2022-08-12T11:20:49.269Z,29.40
2022-08-12T11:23:25.405Z,29.40
2022-08-12T11:26:08.093Z,29.40
2022-08-12T11:28:38.624Z,29.40
2022-08-12T11:31:13.312Z,29.40
2022-08-12T11:34:04.659Z,29.40
2022-08-12T11:36:31.997Z,29.40
2022-08-12T11:39:05.089Z,29.50
2022-08-12T11:41:39.180Z,29.40
2022-08-12T11:44:37.328Z,29.50
2022-08-12T11:46:56.398Z,29.60
2022-08-12T11:49:30.642Z,29.70
2022-08-12T11:52:02.747Z,29.80
2022-08-12T11:54:31.957Z,29.90
2022-08-12T11:58:14.420Z,30.00
2022-08-12T12:02:40.937Z,30.40
2022-08-12T12:05:10.282Z,30.60
2022-08-12T12:08:38.950Z,30.70
2022-08-12T12:10:29.327Z,30.90
2022-08-12T12:12:59.330Z,31.00
2022-08-12T12:15:41.061Z,31.00
2022-08-12T12:18:30.664Z,31.00
2022-08-12T12:21:01.497Z,31.10
2022-08-12T12:23:36.297Z,31.10
2022-08-12T12:26:08.128Z,31.20
2022-08-12T12:28:41.545Z,31.20
2022-08-12T12:32:09.207Z,31.30
2022-08-12T12:34:12.934Z,31.40
2022-08-12T12:37:00.825Z,31.50
2022-08-12T12:39:29.554Z,31.60
2022-08-12T12:42:41.620Z,31.60
2022-08-12T12:45:19.028Z,31.60
2022-08-12T12:47:56.685Z,31.60
2022-08-12T12:50:35.366Z,31.50
2022-08-12T12:53:10.046Z,31.60
2022-08-12T12:55:58.409Z,31.50
2022-08-12T12:58:27.384Z,31.50
2022-08-12T13:00:59.832Z,31.50
2022-08-12T13:03:48.933Z,31.50
2022-08-12T13:06:18.965Z,31.50
2022-08-12T13:08:47.501Z,31.50
2022-08-12T13:11:15.784Z,31.60
2022-08-12T13:14:10.466Z,31.60
2022-08-12T13:16:33.780Z,31.70
2022-08-12T13:19:02.116Z,31.80
2022-08-12T13:21:36.777Z,31.90
2022-08-12T13:24:11.421Z,32.00
2022-08-12T13:26:40.721Z,32.10
2022-08-12T13:29:11.354Z,32.20
2022-08-12T13:32:17.447Z,32.40
2022-08-12T13:34:35.653Z,32.40
2022-08-12T13:37:09.904Z,32.40
2022-08-12T13:39:39.191Z,32.50
2022-08-12T13:42:14.722Z,32.50
2022-08-12T13:44:43.828Z,32.50
2022-08-12T13:47:19.662Z,32.50
2022-08-12T13:49:55.054Z,32.60
2022-08-12T13:52:25.598Z,32.50
2022-08-12T13:54:56.552Z,32.50
2022-08-12T13:57:26.575Z,32.60
2022-08-12T14:00:00.422Z,32.60
2022-08-12T14:02:30.595Z,32.60
2022-08-12T14:04:59.019Z,32.50
2022-08-12T14:07:27.679Z,32.60
2022-08-12T14:10:16.446Z,32.60
2022-08-12T14:12:54.013Z,32.60
2022-08-12T14:15:35.661Z,32.60
2022-08-12T14:18:13.287Z,32.60
2022-08-12T14:20:43.722Z,32.60
2022-08-12T14:24:04.365Z,32.60
2022-08-12T14:26:11.843Z,32.60
2022-08-12T14:28:45.169Z,32.60
2022-08-12T14:31:31.378Z,32.60
2022-08-12T14:34:05.053Z,32.80
2022-08-12T14:36:34.034Z,32.70
2022-08-12T14:39:06.536Z,32.70
2022-08-12T14:41:36.709Z,32.70
2022-08-12T14:44:59.351Z,32.70
2022-08-12T14:47:07.506Z,32.60
2022-08-12T14:50:34.108Z,32.60
2022-08-12T14:53:50.684Z,32.60
2022-08-12T14:58:04.142Z,32.40
2022-08-12T15:00:52.262Z,32.40
2022-08-12T15:03:52.651Z,32.40
2022-08-12T15:06:43.693Z,32.30
2022-08-12T15:09:12.061Z,32.30
2022-08-12T15:11:55.112Z,32.30
2022-08-12T15:14:27.453Z,32.30
2022-08-12T15:16:55.996Z,32.30
2022-08-12T15:20:27.885Z,32.30
2022-08-12T15:22:37.373Z,32.30
2022-08-12T15:25:09.014Z,32.30
2022-08-12T15:28:05.653Z,32.30
2022-08-12T15:30:33.860Z,32.30
2022-08-12T15:33:12.403Z,32.30
2022-08-12T15:35:52.907Z,32.30
2022-08-12T15:38:28.213Z,32.30
2022-08-12T15:40:59.086Z,32.30
2022-08-12T15:43:52.135Z,32.20
2022-08-12T15:46:25.529Z,32.20
2022-08-12T15:48:54.891Z,32.10
2022-08-12T15:51:59.688Z,32.10
2022-08-12T15:54:33.297Z,32.00
2022-08-12T15:57:08.001Z,32.00
2022-08-12T16:00:03.720Z,31.90
2022-08-12T16:02:29.579Z,31.90
2022-08-12T16:04:58.793Z,31.90
2022-08-12T16:07:31.160Z,31.90
2022-08-12T16:10:09.155Z,31.90
2022-08-12T16:12:43.718Z,31.90
2022-08-12T16:15:26.341Z,31.90
2022-08-12T16:18:15.252Z,32.00
2022-08-12T16:20:47.317Z,31.90
2022-08-12T16:23:35.949Z,32.00
2022-08-12T16:26:14.409Z,32.00
2022-08-12T16:28:47.540Z,32.10
2022-08-12T16:31:23.276Z,32.10
2022-08-12T16:33:59.327Z,32.10
2022-08-12T16:36:30.049Z,32.00
2022-08-12T16:39:01.769Z,32.00
2022-08-12T16:41:37.914Z,32.00
2022-08-12T16:44:09.348Z,31.90
2022-08-12T16:46:39.060Z,31.80
2022-08-12T16:49:13.494Z,31.80
2022-08-12T16:51:46.779Z,31.80
2022-08-12T16:54:18.524Z,31.70
2022-08-12T16:56:50.959Z,31.60
2022-08-12T16:59:25.573Z,31.70
2022-08-12T17:01:54.717Z,31.60
2022-08-12T17:04:24.279Z,31.50
2022-08-12T17:06:53.508Z,31.50
2022-08-12T17:09:22.480Z,31.40
2022-08-12T17:11:52.935Z,31.30
2022-08-12T17:14:23.303Z,31.30
2022-08-12T17:16:54.886Z,31.20
2022-08-12T17:20:28.979Z,31.10
2022-08-12T17:22:16.451Z,31.10
2022-08-12T17:24:50.599Z,31.00
2022-08-12T17:27:26.726Z,30.90
2022-08-12T17:30:04.123Z,30.90
2022-08-12T17:32:36.911Z,30.80
2022-08-12T17:35:30.174Z,30.70
2022-08-12T17:38:11.620Z,30.70
2022-08-12T17:40:41.570Z,30.60
2022-08-12T17:43:56.520Z,30.60
2022-08-12T17:46:03.158Z,30.60
2022-08-12T17:48:34.400Z,30.50
2022-08-12T17:51:06.798Z,30.50
2022-08-12T17:54:05.501Z,30.40
2022-08-12T17:56:27.831Z,30.40
2022-08-12T17:59:03.765Z,30.40
2022-08-12T18:01:36.951Z,30.30
2022-08-12T18:04:23.010Z,30.20
2022-08-12T18:06:55.916Z,30.20
2022-08-12T18:09:32.259Z,30.20
2022-08-12T18:12:24.223Z,30.20
2022-08-12T18:15:02.311Z,30.10
2022-08-12T18:17:39.253Z,30.00
2022-08-12T18:20:15.714Z,30.00
2022-08-12T18:22:46.591Z,29.90
2022-08-12T18:26:15.576Z,29.90
2022-08-12T18:28:27.505Z,29.80
2022-08-12T18:31:03.292Z,29.70
2022-08-12T18:33:36.108Z,29.70
2022-08-12T18:36:13.871Z,29.60
2022-08-12T18:38:44.690Z,29.50
2022-08-12T18:41:33.623Z,29.50
2022-08-12T18:44:08.061Z,29.40
2022-08-12T18:46:54.079Z,29.30
2022-08-12T18:49:37.643Z,29.30
2022-08-12T18:52:11.668Z,29.20
2022-08-12T18:54:49.053Z,29.10
2022-08-12T18:58:07.467Z,29.10
2022-08-12T19:00:20.999Z,29.00
2022-08-12T19:02:53.818Z,28.90
2022-08-12T19:05:53.404Z,28.80
2022-08-12T19:08:13.859Z,28.70
2022-08-12T19:10:50.188Z,28.70
2022-08-12T19:13:38.016Z,28.60
2022-08-12T19:16:11.176Z,28.50
2022-08-12T19:18:44.982Z,28.40
2022-08-12T19:21:16.071Z,28.30
2022-08-12T19:24:05.740Z,28.30
2022-08-12T19:26:35.006Z,28.20
2022-08-12T19:29:05.140Z,28.10
2022-08-12T19:31:58.481Z,27.90
2022-08-12T19:37:27.273Z,27.80
2022-08-12T19:40:08.991Z,27.70
2022-08-12T19:42:57.520Z,27.60
2022-08-12T19:45:43.854Z,27.50
2022-08-12T19:48:19.905Z,27.50
2022-08-12T19:50:53.445Z,27.30
2022-08-12T19:53:23.949Z,27.20
2022-08-12T19:55:54.684Z,27.20
2022-08-12T19:58:25.434Z,27.10
2022-08-12T20:00:56.320Z,27.00
2022-08-12T20:03:38.718Z,26.90
2022-08-12T20:06:15.617Z,26.80
2022-08-12T20:08:48.593Z,26.70
2022-08-12T20:12:14.575Z,26.70
2022-08-12T20:14:17.611Z,26.60
2022-08-12T20:16:51.748Z,26.50
2022-08-12T20:19:23.442Z,26.40
2022-08-12T20:21:54.815Z,26.40
2022-08-12T20:24:23.327Z,26.30
2022-08-12T20:27:00.261Z,26.20
2022-08-12T20:29:35.679Z,26.10
2022-08-12T20:32:14.822Z,26.00
2022-08-12T20:34:49.197Z,26.10
2022-08-12T20:38:07.324Z,25.90
2022-08-12T20:40:20.258Z,25.80
2022-08-12T20:42:53.571Z,25.70
2022-08-12T20:45:22.658Z,25.60
2022-08-12T20:48:04.498Z,25.50
2022-08-12T20:50:34.081Z,25.50
2022-08-12T20:53:03.941Z,25.40
2022-08-12T20:55:42.540Z,25.30
2022-08-12T20:58:12.436Z,25.20
2022-08-12T21:00:40.932Z,25.20
2022-08-12T21:03:23.385Z,25.10
2022-08-12T21:06:13.533Z,25.20
2022-08-12T21:08:44.257Z,25.00
2022-08-12T21:11:12.710Z,24.90
2022-08-12T21:13:42.062Z,24.80
2022-08-12T21:16:11.580Z,24.70
2022-08-12T21:18:40.048Z,24.70
2022-08-12T21:21:23.153Z,24.60
2022-08-12T21:23:56.405Z,24.60
2022-08-12T21:26:28.277Z,24.50
2022-08-12T21:29:01.310Z,24.50
2022-08-12T21:32:38.078Z,24.40
2022-08-12T21:34:26.341Z,24.40
2022-08-12T21:37:26.952Z,24.30
2022-08-12T21:39:53.496Z,24.30
2022-08-12T21:42:26.966Z,24.20
2022-08-12T21:45:46.240Z,24.10
2022-08-12T21:47:45.277Z,24.00
2022-08-12T21:50:18.269Z,23.90
2022-08-12T21:52:49.110Z,23.90
2022-08-12T21:55:20.508Z,23.80
2022-08-12T21:57:54.328Z,24.00
2022-08-12T22:00:32.176Z,23.70
2022-08-12T22:04:01.862Z,23.80
2022-08-12T22:06:19.956Z,23.60
2022-08-12T22:08:57.777Z,23.50
2022-08-12T22:11:42.228Z,23.60
2022-08-12T22:14:21.346Z,23.50
2022-08-12T22:16:55.153Z,23.40
2022-08-12T22:19:24.213Z,23.40
2022-08-12T22:21:55.785Z,23.40
2022-08-12T22:24:27.756Z,23.30
2022-08-12T22:27:07.985Z,23.40
2022-08-12T22:30:04.202Z,23.20
2022-08-12T22:32:33.736Z,23.10
2022-08-12T22:35:23.213Z,23.10
2022-08-12T22:37:55.863Z,23.10
2022-08-12T22:40:25.169Z,23.00
2022-08-12T22:43:15.540Z,22.90
2022-08-12T22:46:01.941Z,22.90
2022-08-12T22:48:31.024Z,22.90
2022-08-12T22:50:59.767Z,22.80
2022-08-12T22:53:35.904Z,22.70
2022-08-12T22:56:08.082Z,22.70
2022-08-12T22:58:40.727Z,22.60
2022-08-12T23:01:13.904Z,22.60
2022-08-12T23:03:51.049Z,22.60
2022-08-12T23:06:25.542Z,22.50
2022-08-12T23:08:56.942Z,22.60
2022-08-12T23:11:33.696Z,22.40
2022-08-12T23:14:09.511Z,22.40
2022-08-12T23:16:40.866Z,22.30
2022-08-12T23:19:22.877Z,22.30
2022-08-12T23:22:06.076Z,22.20
2022-08-12T23:24:56.475Z,22.10
2022-08-12T23:27:51.924Z,22.10
2022-08-12T23:30:32.138Z,22.10
2022-08-12T23:33:20.068Z,22.00
2022-08-12T23:36:02.787Z,22.20
2022-08-12T23:38:33.231Z,22.10
2022-08-12T23:41:05.157Z,21.90
2022-08-12T23:43:38.827Z,22.10
2022-08-12T23:46:19.121Z,22.00
2022-08-12T23:48:51.677Z,21.80
2022-08-12T23:51:24.572Z,21.80
2022-08-12T23:53:56.426Z,21.80
2022-08-12T23:56:33.650Z,21.70
2022-08-12T23:59:03.536Z,21.80
